Terminal Aerodrome Forecast
Issued by NWS Louisville, KY

Home | Current Version | Previous Version | Text Only | Print | Product List | Glossary On
Versions: 1 2 3 4 5 6 7 8 9 10 11 12 13 14 15 16 17 18 19
000
FTUS43 KLMK 252320
TAFLEX
TAF
KLEX 252320Z 2600/2624 24006KT P6SM VCSH BKN110
     FM260200 VRB03KT P6SM SCT150
     FM260700 20003KT 4SM BR SCT250
      TEMPO 2609/2613 1SM BR
     FM261300 26006KT P6SM SCT050=

USA.gov is the U.S. government's official web portal to all federal, state and local government web resources and services.